Terminal Aerodrome Forecast
Issued by NWS Twin Cities, MN

Home | Current Version | Previous Version | Text Only | Print | Product List | Glossary Off
Versions: 1 2 3 4 5 6 7 8 9 10 11 12 13 14 15 16 17 18 19 20

414
FTUS43 KMPX 172339
TAFEAU
TAF
KEAU 172339Z 1800/1824 31011KT P6SM OVC020
     FM180300 29006KT P6SM BKN015
     FM180700 27004KT P6SM SCT015
     FM180900 27004KT 2SM BR SKC
     FM181300 29007KT P6SM BKN150=

USA.gov is the U.S. government's official web portal to all federal, state and local government web resources and services.